createdAt,value
2022-12-25T11:21:15.663Z,62.72
2022-12-25T12:17:20.117Z,55.15
2022-12-25T12:19:46.788Z,55.14
2022-12-25T12:22:18.952Z,55.47
2022-12-25T12:24:50.498Z,56.26
2022-12-25T12:27:27.587Z,56.58
2022-12-25T12:29:57.440Z,56.96
2022-12-25T12:48:39.558Z,58.36
2022-12-25T12:51:09.316Z,56.85
2022-12-25T12:53:38.648Z,57.30
2022-12-25T12:56:20.065Z,57.47
2022-12-25T12:58:50.988Z,57.01
2022-12-25T13:01:26.803Z,57.66
2022-12-25T13:04:03.583Z,58.33
2022-12-25T13:06:40.301Z,58.86
2022-12-25T13:09:27.037Z,58.97
2022-12-25T13:11:53.702Z,57.98
2022-12-25T13:14:23.235Z,57.38
2022-12-25T13:16:53.501Z,57.09
2022-12-25T13:19:26.235Z,57.71
2022-12-25T13:21:56.164Z,57.93
2022-12-25T13:24:25.331Z,57.74
2022-12-25T13:26:52.014Z,58.06
2022-12-25T13:29:35.355Z,57.60
2022-12-25T13:32:05.086Z,57.59
2022-12-25T13:34:35.738Z,57.67
2022-12-25T13:37:13.025Z,57.63
2022-12-25T13:39:52.946Z,57.73
2022-12-25T13:42:22.349Z,57.08
2022-12-25T13:44:55.932Z,57.03
2022-12-25T13:47:35.914Z,57.33
2022-12-25T13:50:21.322Z,57.48
2022-12-25T13:52:47.911Z,57.28
2022-12-25T13:55:15.534Z,56.95
2022-12-25T13:57:49.496Z,56.84
2022-12-25T14:00:44.110Z,57.34
2022-12-25T14:03:19.723Z,57.46
2022-12-25T14:05:56.238Z,56.85
2022-12-25T14:08:26.500Z,57.03
2022-12-25T14:10:54.406Z,57.01
2022-12-25T14:13:24.905Z,56.78
2022-12-25T14:15:53.559Z,57.16
2022-12-25T14:18:23.150Z,57.42
2022-12-25T14:20:55.757Z,57.34
2022-12-25T14:34:49.495Z,65.25
2022-12-25T14:37:20.738Z,67.58
2022-12-25T14:43:55.667Z,73.18
2022-12-25T14:46:27.890Z,74.98
2022-12-25T14:49:00.576Z,75.85
2022-12-25T14:51:29.110Z,76.74
2022-12-25T14:53:58.091Z,78.91
2022-12-25T14:56:27.839Z,79.62
2022-12-25T14:58:59.487Z,79.37
2022-12-25T15:01:36.590Z,80.00
2022-12-25T15:04:23.859Z,81.78
2022-12-25T15:07:07.199Z,82.33
2022-12-25T15:09:35.978Z,83.10
2022-12-25T15:12:03.259Z,82.83
2022-12-25T15:14:31.452Z,84.20
2022-12-25T15:17:00.048Z,83.70
2022-12-25T15:19:36.529Z,83.11
2022-12-25T15:22:04.472Z,83.17
2022-12-25T15:24:31.237Z,82.98
2022-12-25T15:27:00.207Z,82.94
2022-12-25T15:30:00.139Z,83.40
2022-12-25T15:32:19.555Z,83.89
2022-12-25T15:34:47.280Z,83.49
2022-12-25T15:37:14.449Z,83.95
2022-12-25T15:39:41.246Z,83.63
2022-12-25T15:42:16.870Z,83.50
2022-12-25T15:44:44.601Z,84.54
2022-12-25T15:47:16.108Z,84.28
2022-12-25T15:49:43.320Z,84.30
2022-12-25T15:52:15.332Z,83.84
2022-12-25T15:54:42.248Z,83.52
2022-12-25T15:57:21.219Z,83.29
2022-12-25T15:59:48.137Z,85.27
2022-12-25T16:02:17.590Z,84.97
2022-12-25T16:04:44.848Z,85.26
2022-12-25T16:07:21.597Z,85.07
2022-12-25T16:09:48.468Z,84.93
2022-12-25T16:12:15.846Z,85.06
2022-12-25T16:14:42.856Z,84.47
2022-12-25T16:17:14.801Z,84.30
2022-12-25T16:19:44.938Z,83.85
2022-12-25T16:22:21.398Z,84.27
2022-12-25T16:24:49.161Z,84.42
2022-12-25T16:27:15.660Z,85.62
2022-12-25T16:29:47.789Z,85.79
2022-12-25T16:32:15.661Z,85.37
2022-12-25T16:34:42.461Z,86.07
2022-12-25T16:37:09.203Z,86.16
2022-12-25T16:39:35.898Z,85.72
2022-12-25T16:42:02.574Z,86.93
2022-12-25T16:44:29.250Z,85.85
2022-12-25T16:46:56.139Z,85.24
2022-12-25T16:49:22.841Z,85.59
2022-12-25T16:51:49.552Z,85.62
2022-12-25T16:54:16.280Z,86.21
2022-12-25T16:56:42.957Z,85.69
2022-12-25T16:59:09.653Z,85.92
2022-12-25T17:01:37.896Z,85.50
2022-12-25T17:04:05.101Z,86.41
2022-12-25T17:06:31.850Z,86.62
2022-12-25T17:09:00.209Z,87.04
2022-12-25T17:11:29.776Z,85.72
2022-12-25T17:13:59.801Z,85.31
2022-12-25T17:16:28.653Z,85.78
2022-12-25T17:18:57.559Z,86.22
2022-12-25T17:21:26.420Z,86.02
2022-12-25T17:23:58.188Z,86.48
2022-12-25T17:26:28.421Z,86.30
2022-12-25T17:28:56.275Z,86.41
2022-12-25T17:31:23.693Z,86.28
2022-12-25T17:33:50.502Z,87.09
2022-12-25T17:36:19.678Z,87.18
2022-12-25T17:38:47.695Z,86.97
2022-12-25T17:41:15.938Z,86.75
2022-12-25T17:43:45.637Z,86.43
2022-12-25T17:46:19.412Z,86.37
2022-12-25T17:48:46.919Z,86.46
2022-12-25T17:51:16.346Z,86.31
2022-12-25T17:53:45.532Z,86.50
2022-12-25T17:56:14.124Z,86.84
2022-12-25T17:58:41.142Z,86.51
2022-12-25T18:01:14.801Z,86.96
2022-12-25T18:03:43.218Z,87.39
2022-12-25T18:06:15.937Z,87.25
2022-12-25T18:08:44.583Z,86.71
2022-12-25T18:11:19.677Z,85.46
2022-12-25T18:13:49.901Z,87.01
2022-12-25T18:16:18.029Z,87.68
2022-12-25T18:18:51.892Z,87.03
2022-12-25T18:21:19.959Z,86.94
2022-12-25T18:23:46.972Z,87.02
2022-12-25T18:26:14.106Z,87.25
2022-12-25T18:28:43.406Z,86.63
2022-12-25T18:31:13.016Z,86.56
2022-12-25T18:33:39.632Z,86.23
2022-12-25T18:36:06.706Z,87.12
2022-12-25T18:38:34.039Z,87.01
2022-12-25T18:41:07.559Z,86.89
2022-12-25T18:43:51.459Z,86.52
2022-12-25T18:46:22.332Z,87.25
2022-12-25T18:48:49.461Z,87.18
2022-12-25T18:51:16.231Z,86.38
2022-12-25T18:53:43.029Z,86.64
2022-12-25T18:56:13.664Z,86.62
2022-12-25T18:58:41.531Z,86.71
2022-12-25T19:01:11.583Z,86.73
2022-12-25T19:03:38.517Z,87.52
2022-12-25T19:06:05.830Z,86.64
2022-12-25T19:08:32.629Z,86.31
2022-12-25T19:10:59.389Z,87.23
2022-12-25T19:13:28.535Z,88.19
2022-12-25T19:16:02.442Z,87.52
2022-12-25T19:18:32.571Z,87.96
2022-12-25T19:21:07.372Z,87.67
2022-12-25T19:23:34.690Z,87.30
2022-12-25T19:26:04.572Z,87.04
2022-12-25T19:28:31.254Z,86.63
2022-12-25T19:30:59.999Z,86.76
2022-12-25T19:33:26.724Z,87.53
2022-12-25T19:35:53.384Z,87.57
2022-12-25T19:38:20.142Z,88.42
2022-12-25T19:41:00.275Z,88.18
2022-12-25T19:43:33.490Z,87.33
2022-12-25T19:46:01.818Z,87.50
2022-12-25T19:48:29.531Z,87.78
2022-12-25T19:50:56.225Z,87.86
2022-12-25T19:53:25.653Z,87.53
2022-12-25T19:55:53.677Z,88.24
2022-12-25T19:58:21.756Z,87.54
2022-12-25T20:00:58.865Z,87.84
2022-12-25T20:03:26.661Z,88.52
2022-12-25T20:05:53.469Z,87.99
2022-12-25T20:08:20.278Z,88.25
2022-12-25T20:10:46.986Z,88.69
2022-12-25T20:13:13.814Z,88.99
2022-12-25T20:15:40.680Z,88.54
2022-12-25T20:18:07.468Z,89.20
2022-12-25T20:20:34.136Z,89.72
2022-12-25T20:23:00.842Z,88.71
2022-12-25T20:25:27.530Z,88.76
2022-12-25T20:27:54.261Z,88.45
2022-12-25T20:30:20.863Z,88.61
2022-12-25T20:32:50.527Z,88.73
2022-12-25T20:35:17.742Z,88.15
2022-12-25T20:37:44.474Z,89.04
2022-12-25T20:40:53.370Z,88.54
2022-12-25T20:43:23.019Z,88.37
2022-12-25T20:45:52.404Z,89.22
2022-12-25T20:48:19.206Z,88.67
2022-12-25T20:50:45.960Z,88.78
2022-12-25T20:53:12.662Z,88.53
2022-12-25T20:55:45.393Z,89.44
2022-12-25T20:58:13.122Z,89.27
2022-12-25T21:00:41.299Z,89.30
2022-12-25T21:03:09.601Z,88.64
2022-12-25T21:05:49.825Z,88.64
2022-12-25T21:08:17.894Z,88.63
2022-12-25T21:10:47.632Z,88.42
2022-12-25T21:13:18.744Z,86.55
2022-12-25T21:15:47.249Z,86.39
2022-12-25T21:18:15.675Z,87.08
2022-12-25T21:20:51.765Z,87.43
2022-12-25T21:23:19.843Z,87.17
2022-12-25T21:25:46.791Z,87.64
2022-12-25T21:28:13.986Z,87.92
2022-12-25T21:30:43.982Z,86.99
2022-12-25T21:33:33.004Z,86.29
2022-12-25T21:36:11.109Z,87.76
2022-12-25T21:38:38.846Z,88.79
2022-12-25T21:41:13.158Z,88.15
2022-12-25T21:43:41.131Z,88.84
2022-12-25T21:46:10.955Z,88.51
2022-12-25T21:48:38.610Z,88.63
2022-12-25T21:51:26.600Z,88.46
2022-12-25T21:53:53.461Z,88.04
2022-12-25T21:56:20.141Z,88.21
2022-12-25T21:58:48.173Z,89.17
2022-12-25T22:01:16.961Z,88.60
2022-12-25T22:03:44.502Z,88.40
2022-12-25T22:06:31.355Z,87.99
2022-12-25T22:08:58.263Z,88.67
2022-12-25T22:11:45.134Z,88.49
2022-12-25T22:14:52.547Z,88.30
2022-12-25T22:18:00.533Z,87.81
2022-12-25T22:20:31.285Z,86.76
2022-12-25T22:23:00.691Z,86.67
2022-12-25T22:25:27.388Z,88.21
2022-12-25T22:27:54.456Z,88.67
2022-12-25T22:30:29.009Z,87.55
2022-12-25T22:32:56.213Z,87.79
2022-12-25T22:35:23.487Z,87.45
2022-12-25T22:37:50.471Z,87.69
2022-12-25T22:40:19.287Z,87.53
2022-12-25T22:42:46.713Z,87.77
2022-12-25T22:45:13.743Z,87.66
2022-12-25T22:47:40.632Z,88.28
2022-12-25T22:50:08.099Z,88.17
2022-12-25T22:52:34.862Z,87.92
2022-12-25T22:55:02.531Z,87.41
2022-12-25T22:57:29.409Z,87.45
2022-12-25T22:59:56.132Z,87.98
2022-12-25T23:02:23.189Z,87.33
2022-12-25T23:04:49.986Z,87.79
2022-12-25T23:07:16.758Z,87.57
2022-12-25T23:09:44.496Z,87.72
2022-12-25T23:12:31.852Z,87.40
2022-12-25T23:14:58.934Z,87.32
2022-12-25T23:17:44.193Z,87.84
2022-12-25T23:20:32.664Z,88.14
2022-12-25T23:23:17.658Z,88.22
2022-12-25T23:26:02.793Z,87.91
2022-12-25T23:28:47.954Z,87.99
2022-12-25T23:31:14.695Z,88.74
2022-12-25T23:33:41.310Z,89.07
2022-12-25T23:36:07.989Z,88.65
2022-12-25T23:38:34.542Z,88.67
2022-12-25T23:41:01.247Z,88.85
2022-12-25T23:43:27.846Z,88.35
2022-12-25T23:45:54.501Z,88.50
2022-12-25T23:48:24.938Z,88.97
2022-12-25T23:50:54.889Z,88.92
2022-12-25T23:53:21.575Z,88.71
2022-12-25T23:55:55.306Z,88.81
2022-12-25T23:58:22.683Z,87.92
